Terminal Aerodrome Forecast
Issued by NWS Wilmington, OH

Current Version | Previous Version | Graphics & Text | Print | Product List | Glossary On
Versions: 1 2 3 4 5 6 7 8 9 10 11 12 13 14 15 16 17 18 19 20 21 22
000
FTUS41 KILN 221700
TAFILN
TAF
KILN 221729Z 2218/2318 01012KT P6SM OVC025
      TEMPO 2218/2220 BKN015
     FM230000 01006KT P6SM BKN025
     FM230300 03004KT P6SM SCT025
     FM230500 VRB03KT P6SM SKC
      TEMPO 2309/2311 5SM BR
     FM231500 31005KT P6SM SCT250=

USA.gov is the U.S. government's official web portal to all federal, state and local government web resources and services.